sensor_id;sensor_type;location;lat;lon;timestamp;temperature;humidity
24730;DHT22;12832;52.392;13.066;2022-10-16T00:02:12;27.30;40.00
24730;DHT22;12832;52.392;13.066;2022-10-16T00:04:38;27.30;40.00
24730;DHT22;12832;52.392;13.066;2022-10-16T00:07:05;27.30;39.90
24730;DHT22;12832;52.392;13.066;2022-10-16T00:09:31;27.30;40.00
24730;DHT22;12832;52.392;13.066;2022-10-16T00:11:57;27.30;39.90
24730;DHT22;12832;52.392;13.066;2022-10-16T00:14:23;27.30;39.90
24730;DHT22;12832;52.392;13.066;2022-10-16T00:16:49;27.30;40.00
24730;DHT22;12832;52.392;13.066;2022-10-16T00:19:16;27.30;40.00
24730;DHT22;12832;52.392;13.066;2022-10-16T00:21:42;27.30;39.90
24730;DHT22;12832;52.392;13.066;2022-10-16T00:24:09;27.30;39.90
24730;DHT22;12832;52.392;13.066;2022-10-16T00:26:38;27.30;40.00
24730;DHT22;12832;52.392;13.066;2022-10-16T00:29:05;27.30;40.00
24730;DHT22;12832;52.392;13.066;2022-10-16T00:31:31;27.30;40.00
24730;DHT22;12832;52.392;13.066;2022-10-16T00:33:58;27.30;40.00
24730;DHT22;12832;52.392;13.066;2022-10-16T00:36:25;27.30;40.00
24730;DHT22;12832;52.392;13.066;2022-10-16T00:38:53;27.30;40.00
24730;DHT22;12832;52.392;13.066;2022-10-16T00:41:22;27.30;40.00
24730;DHT22;12832;52.392;13.066;2022-10-16T00:43:53;27.30;40.00
24730;DHT22;12832;52.392;13.066;2022-10-16T00:46:35;27.30;40.00
24730;DHT22;12832;52.392;13.066;2022-10-16T00:49:11;27.30;40.00
24730;DHT22;12832;52.392;13.066;2022-10-16T00:51:45;27.30;40.00
24730;DHT22;12832;52.392;13.066;2022-10-16T00:54:23;27.30;40.00
24730;DHT22;12832;52.392;13.066;2022-10-16T00:56:50;27.30;40.00
24730;DHT22;12832;52.392;13.066;2022-10-16T00:59:24;27.30;40.00
24730;DHT22;12832;52.392;13.066;2022-10-16T01:01:52;27.30;40.00
24730;DHT22;12832;52.392;13.066;2022-10-16T01:04:18;27.30;40.00
24730;DHT22;12832;52.392;13.066;2022-10-16T01:07:01;27.30;40.00
24730;DHT22;12832;52.392;13.066;2022-10-16T01:15:26;27.30;40.70
24730;DHT22;12832;52.392;13.066;2022-10-16T01:18:05;27.30;40.00
24730;DHT22;12832;52.392;13.066;2022-10-16T01:20:37;27.30;40.10
24730;DHT22;12832;52.392;13.066;2022-10-16T01:28:34;27.30;40.10
24730;DHT22;12832;52.392;13.066;2022-10-16T01:31:03;27.30;40.10
24730;DHT22;12832;52.392;13.066;2022-10-16T01:33:59;27.30;40.00
24730;DHT22;12832;52.392;13.066;2022-10-16T01:36:35;27.30;40.00
24730;DHT22;12832;52.392;13.066;2022-10-16T01:39:03;27.30;40.10
24730;DHT22;12832;52.392;13.066;2022-10-16T01:41:36;27.30;40.10
24730;DHT22;12832;52.392;13.066;2022-10-16T01:44:11;27.30;40.10
24730;DHT22;12832;52.392;13.066;2022-10-16T01:46:43;27.30;40.10
24730;DHT22;12832;52.392;13.066;2022-10-16T01:49:11;27.30;40.10
24730;DHT22;12832;52.392;13.066;2022-10-16T01:51:38;27.30;40.00
24730;DHT22;12832;52.392;13.066;2022-10-16T01:54:08;27.30;40.10
24730;DHT22;12832;52.392;13.066;2022-10-16T01:56:36;27.30;40.00
24730;DHT22;12832;52.392;13.066;2022-10-16T01:59:09;27.30;40.00
24730;DHT22;12832;52.392;13.066;2022-10-16T02:01:39;27.30;40.10
24730;DHT22;12832;52.392;13.066;2022-10-16T02:04:15;27.30;40.00
24730;DHT22;12832;52.392;13.066;2022-10-16T02:06:43;27.30;40.00
24730;DHT22;12832;52.392;13.066;2022-10-16T02:09:09;27.30;40.00
24730;DHT22;12832;52.392;13.066;2022-10-16T02:11:36;27.30;40.10
24730;DHT22;12832;52.392;13.066;2022-10-16T02:14:05;27.30;40.10
24730;DHT22;12832;52.392;13.066;2022-10-16T02:16:40;27.30;40.10
24730;DHT22;12832;52.392;13.066;2022-10-16T02:19:07;27.30;40.10
24730;DHT22;12832;52.392;13.066;2022-10-16T02:21:54;27.30;40.10
24730;DHT22;12832;52.392;13.066;2022-10-16T02:24:43;27.30;40.10
24730;DHT22;12832;52.392;13.066;2022-10-16T02:27:41;27.30;40.00
24730;DHT22;12832;52.392;13.066;2022-10-16T02:30:17;27.30;40.10
24730;DHT22;12832;52.392;13.066;2022-10-16T02:32:46;27.30;40.10
24730;DHT22;12832;52.392;13.066;2022-10-16T02:35:16;27.30;40.10
24730;DHT22;12832;52.392;13.066;2022-10-16T02:37:43;27.30;40.00
24730;DHT22;12832;52.392;13.066;2022-10-16T02:40:10;27.30;40.10
24730;DHT22;12832;52.392;13.066;2022-10-16T02:42:38;27.30;40.10
24730;DHT22;12832;52.392;13.066;2022-10-16T02:45:07;27.30;40.70
24730;DHT22;12832;52.392;13.066;2022-10-16T02:47:33;27.30;40.10
24730;DHT22;12832;52.392;13.066;2022-10-16T02:50:00;27.30;40.10
24730;DHT22;12832;52.392;13.066;2022-10-16T02:52:26;27.30;40.10
24730;DHT22;12832;52.392;13.066;2022-10-16T02:54:53;27.30;40.10
24730;DHT22;12832;52.392;13.066;2022-10-16T02:57:19;27.30;40.10
24730;DHT22;12832;52.392;13.066;2022-10-16T02:59:46;27.30;40.10
24730;DHT22;12832;52.392;13.066;2022-10-16T03:02:13;27.30;40.10
24730;DHT22;12832;52.392;13.066;2022-10-16T03:04:39;27.30;40.10
24730;DHT22;12832;52.392;13.066;2022-10-16T03:07:06;27.30;40.10
24730;DHT22;12832;52.392;13.066;2022-10-16T03:09:32;27.30;40.10
24730;DHT22;12832;52.392;13.066;2022-10-16T03:11:58;27.30;40.10
24730;DHT22;12832;52.392;13.066;2022-10-16T03:14:24;27.30;40.10
24730;DHT22;12832;52.392;13.066;2022-10-16T03:16:50;27.30;40.10
24730;DHT22;12832;52.392;13.066;2022-10-16T03:19:18;27.30;40.10
24730;DHT22;12832;52.392;13.066;2022-10-16T03:21:44;27.30;40.00
24730;DHT22;12832;52.392;13.066;2022-10-16T03:24:11;27.30;40.10
24730;DHT22;12832;52.392;13.066;2022-10-16T03:26:37;27.30;40.10
24730;DHT22;12832;52.392;13.066;2022-10-16T03:29:04;27.30;40.10
24730;DHT22;12832;52.392;13.066;2022-10-16T03:31:30;27.30;40.10
24730;DHT22;12832;52.392;13.066;2022-10-16T03:33:57;27.30;40.10
24730;DHT22;12832;52.392;13.066;2022-10-16T03:36:23;27.30;40.00
24730;DHT22;12832;52.392;13.066;2022-10-16T03:38:50;27.30;40.10
24730;DHT22;12832;52.392;13.066;2022-10-16T03:41:16;27.30;40.10
24730;DHT22;12832;52.392;13.066;2022-10-16T03:43:42;27.30;40.10
24730;DHT22;12832;52.392;13.066;2022-10-16T03:46:09;27.30;40.10
24730;DHT22;12832;52.392;13.066;2022-10-16T03:48:35;27.30;40.10
24730;DHT22;12832;52.392;13.066;2022-10-16T03:51:01;27.30;40.10
24730;DHT22;12832;52.392;13.066;2022-10-16T03:53:28;27.30;40.10
24730;DHT22;12832;52.392;13.066;2022-10-16T03:55:54;27.30;40.10
24730;DHT22;12832;52.392;13.066;2022-10-16T03:58:20;27.30;40.10
24730;DHT22;12832;52.392;13.066;2022-10-16T04:00:46;27.30;40.10
24730;DHT22;12832;52.392;13.066;2022-10-16T04:03:13;27.30;40.10
24730;DHT22;12832;52.392;13.066;2022-10-16T04:05:40;27.30;40.10
24730;DHT22;12832;52.392;13.066;2022-10-16T04:08:06;27.30;40.10
24730;DHT22;12832;52.392;13.066;2022-10-16T04:10:33;27.30;40.10
24730;DHT22;12832;52.392;13.066;2022-10-16T04:12:59;27.30;40.10
24730;DHT22;12832;52.392;13.066;2022-10-16T04:15:26;27.30;40.10
24730;DHT22;12832;52.392;13.066;2022-10-16T04:17:52;27.30;40.10
24730;DHT22;12832;52.392;13.066;2022-10-16T04:20:18;27.30;40.10
24730;DHT22;12832;52.392;13.066;2022-10-16T04:22:45;27.30;40.10
24730;DHT22;12832;52.392;13.066;2022-10-16T04:25:11;27.30;40.10
24730;DHT22;12832;52.392;13.066;2022-10-16T04:27:38;27.30;40.10
24730;DHT22;12832;52.392;13.066;2022-10-16T04:30:10;27.30;40.10
24730;DHT22;12832;52.392;13.066;2022-10-16T04:32:37;27.30;40.10
24730;DHT22;12832;52.392;13.066;2022-10-16T04:35:03;27.30;40.10
24730;DHT22;12832;52.392;13.066;2022-10-16T04:37:30;27.30;40.10
24730;DHT22;12832;52.392;13.066;2022-10-16T04:39:56;27.30;40.10
24730;DHT22;12832;52.392;13.066;2022-10-16T04:42:22;27.30;40.10
24730;DHT22;12832;52.392;13.066;2022-10-16T04:44:48;27.30;40.20
24730;DHT22;12832;52.392;13.066;2022-10-16T04:47:15;27.30;40.10
24730;DHT22;12832;52.392;13.066;2022-10-16T04:49:41;27.30;40.10
24730;DHT22;12832;52.392;13.066;2022-10-16T04:52:07;27.30;40.80
24730;DHT22;12832;52.392;13.066;2022-10-16T04:54:35;27.30;40.10
24730;DHT22;12832;52.392;13.066;2022-10-16T04:57:01;27.30;40.20
24730;DHT22;12832;52.392;13.066;2022-10-16T04:59:28;27.30;40.20
24730;DHT22;12832;52.392;13.066;2022-10-16T05:01:54;27.30;40.10
24730;DHT22;12832;52.392;13.066;2022-10-16T05:04:20;27.30;40.20
24730;DHT22;12832;52.392;13.066;2022-10-16T05:06:47;27.30;40.10
24730;DHT22;12832;52.392;13.066;2022-10-16T05:09:14;27.30;40.10
24730;DHT22;12832;52.392;13.066;2022-10-16T05:11:40;27.30;40.10
24730;DHT22;12832;52.392;13.066;2022-10-16T05:14:06;27.30;40.10
24730;DHT22;12832;52.392;13.066;2022-10-16T05:16:32;27.30;40.10
24730;DHT22;12832;52.392;13.066;2022-10-16T05:18:59;27.30;40.10
24730;DHT22;12832;52.392;13.066;2022-10-16T05:21:45;27.30;40.10
24730;DHT22;12832;52.392;13.066;2022-10-16T05:24:11;27.30;40.10
24730;DHT22;12832;52.392;13.066;2022-10-16T05:26:37;27.30;40.10
24730;DHT22;12832;52.392;13.066;2022-10-16T05:29:03;27.30;40.10
24730;DHT22;12832;52.392;13.066;2022-10-16T05:31:29;27.30;40.10
24730;DHT22;12832;52.392;13.066;2022-10-16T05:33:59;27.30;40.10
24730;DHT22;12832;52.392;13.066;2022-10-16T05:36:27;27.30;40.20
24730;DHT22;12832;52.392;13.066;2022-10-16T05:38:54;27.30;40.10
24730;DHT22;12832;52.392;13.066;2022-10-16T05:41:20;27.30;40.10
24730;DHT22;12832;52.392;13.066;2022-10-16T05:43:48;27.30;40.10
24730;DHT22;12832;52.392;13.066;2022-10-16T05:46:14;27.30;40.20
24730;DHT22;12832;52.392;13.066;2022-10-16T05:48:41;27.30;40.10
24730;DHT22;12832;52.392;13.066;2022-10-16T05:51:09;27.40;40.20
24730;DHT22;12832;52.392;13.066;2022-10-16T05:53:39;27.30;40.10
24730;DHT22;12832;52.392;13.066;2022-10-16T05:56:09;27.30;40.10
24730;DHT22;12832;52.392;13.066;2022-10-16T05:58:37;27.30;40.20
24730;DHT22;12832;52.392;13.066;2022-10-16T06:01:09;27.30;40.20
24730;DHT22;12832;52.392;13.066;2022-10-16T06:03:36;27.30;40.20
24730;DHT22;12832;52.392;13.066;2022-10-16T06:06:13;27.30;40.20
24730;DHT22;12832;52.392;13.066;2022-10-16T06:08:40;27.30;40.20
24730;DHT22;12832;52.392;13.066;2022-10-16T06:11:09;27.30;40.20
24730;DHT22;12832;52.392;13.066;2022-10-16T06:13:36;27.30;40.10
24730;DHT22;12832;52.392;13.066;2022-10-16T06:16:03;27.30;40.20
24730;DHT22;12832;52.392;13.066;2022-10-16T06:18:30;27.30;40.20
24730;DHT22;12832;52.392;13.066;2022-10-16T06:20:56;27.30;40.10
24730;DHT22;12832;52.392;13.066;2022-10-16T06:23:23;27.30;40.10
24730;DHT22;12832;52.392;13.066;2022-10-16T06:25:50;27.30;40.10
24730;DHT22;12832;52.392;13.066;2022-10-16T06:28:16;27.30;40.10
24730;DHT22;12832;52.392;13.066;2022-10-16T06:30:42;27.30;40.10
24730;DHT22;12832;52.392;13.066;2022-10-16T06:33:12;27.30;40.10
24730;DHT22;12832;52.392;13.066;2022-10-16T06:35:38;27.30;40.20
24730;DHT22;12832;52.392;13.066;2022-10-16T06:38:04;27.30;40.20
24730;DHT22;12832;52.392;13.066;2022-10-16T06:40:31;27.30;40.20
24730;DHT22;12832;52.392;13.066;2022-10-16T06:42:57;27.30;40.10
24730;DHT22;12832;52.392;13.066;2022-10-16T06:45:23;27.30;40.20
24730;DHT22;12832;52.392;13.066;2022-10-16T06:47:49;27.30;40.20
24730;DHT22;12832;52.392;13.066;2022-10-16T06:50:16;27.30;40.20
24730;DHT22;12832;52.392;13.066;2022-10-16T06:52:42;27.30;40.20
24730;DHT22;12832;52.392;13.066;2022-10-16T06:55:08;27.30;40.20
24730;DHT22;12832;52.392;13.066;2022-10-16T06:57:34;27.40;40.20
24730;DHT22;12832;52.392;13.066;2022-10-16T07:00:01;27.30;40.10
24730;DHT22;12832;52.392;13.066;2022-10-16T07:02:27;27.30;40.10
24730;DHT22;12832;52.392;13.066;2022-10-16T07:04:54;27.30;40.20
24730;DHT22;12832;52.392;13.066;2022-10-16T07:07:20;27.30;40.20
24730;DHT22;12832;52.392;13.066;2022-10-16T07:09:46;27.30;40.20
24730;DHT22;12832;52.392;13.066;2022-10-16T07:12:12;27.30;40.20
24730;DHT22;12832;52.392;13.066;2022-10-16T07:14:38;27.30;40.20
24730;DHT22;12832;52.392;13.066;2022-10-16T07:17:05;27.30;40.20
24730;DHT22;12832;52.392;13.066;2022-10-16T07:19:31;27.30;40.20
24730;DHT22;12832;52.392;13.066;2022-10-16T07:22:00;27.30;40.20
24730;DHT22;12832;52.392;13.066;2022-10-16T07:24:27;27.30;40.20
24730;DHT22;12832;52.392;13.066;2022-10-16T07:26:53;27.40;40.20
24730;DHT22;12832;52.392;13.066;2022-10-16T07:29:21;27.30;40.10
24730;DHT22;12832;52.392;13.066;2022-10-16T07:31:48;27.30;40.20
24730;DHT22;12832;52.392;13.066;2022-10-16T07:34:16;27.30;40.20
24730;DHT22;12832;52.392;13.066;2022-10-16T07:36:43;27.30;40.20
24730;DHT22;12832;52.392;13.066;2022-10-16T07:39:10;27.30;40.20
24730;DHT22;12832;52.392;13.066;2022-10-16T07:41:37;27.30;40.20
24730;DHT22;12832;52.392;13.066;2022-10-16T07:44:04;27.30;40.20
24730;DHT22;12832;52.392;13.066;2022-10-16T07:46:30;27.30;40.20
24730;DHT22;12832;52.392;13.066;2022-10-16T07:48:57;27.30;40.20
24730;DHT22;12832;52.392;13.066;2022-10-16T07:51:25;27.30;40.20
24730;DHT22;12832;52.392;13.066;2022-10-16T07:53:52;27.30;40.20
24730;DHT22;12832;52.392;13.066;2022-10-16T07:56:20;27.30;40.20
24730;DHT22;12832;52.392;13.066;2022-10-16T07:58:47;27.30;40.20
24730;DHT22;12832;52.392;13.066;2022-10-16T08:01:16;27.30;40.20
24730;DHT22;12832;52.392;13.066;2022-10-16T08:03:46;27.30;40.20
24730;DHT22;12832;52.392;13.066;2022-10-16T08:06:13;27.30;40.20
24730;DHT22;12832;52.392;13.066;2022-10-16T08:08:40;27.30;40.20
24730;DHT22;12832;52.392;13.066;2022-10-16T08:11:06;27.30;40.20
24730;DHT22;12832;52.392;13.066;2022-10-16T08:13:33;27.30;40.20
24730;DHT22;12832;52.392;13.066;2022-10-16T08:16:00;27.30;40.20
24730;DHT22;12832;52.392;13.066;2022-10-16T08:18:27;27.30;40.20
24730;DHT22;12832;52.392;13.066;2022-10-16T08:20:57;27.30;40.20
24730;DHT22;12832;52.392;13.066;2022-10-16T08:23:25;27.30;40.20
24730;DHT22;12832;52.392;13.066;2022-10-16T08:25:53;27.30;40.20
24730;DHT22;12832;52.392;13.066;2022-10-16T08:28:19;27.30;40.20
24730;DHT22;12832;52.392;13.066;2022-10-16T08:30:46;27.30;40.20
24730;DHT22;12832;52.392;13.066;2022-10-16T08:33:12;27.30;40.20
24730;DHT22;12832;52.392;13.066;2022-10-16T08:35:38;27.30;40.20
24730;DHT22;12832;52.392;13.066;2022-10-16T08:38:04;27.30;40.90
24730;DHT22;12832;52.392;13.066;2022-10-16T08:40:33;27.30;40.20
24730;DHT22;12832;52.392;13.066;2022-10-16T08:43:29;27.30;40.20
24730;DHT22;12832;52.392;13.066;2022-10-16T08:48:48;27.30;40.20
24730;DHT22;12832;52.392;13.066;2022-10-16T08:51:31;27.30;40.20
24730;DHT22;12832;52.392;13.066;2022-10-16T08:54:01;27.30;40.20
24730;DHT22;12832;52.392;13.066;2022-10-16T08:56:28;27.30;40.20
24730;DHT22;12832;52.392;13.066;2022-10-16T08:58:55;27.30;40.20
24730;DHT22;12832;52.392;13.066;2022-10-16T09:01:38;27.30;40.20
24730;DHT22;12832;52.392;13.066;2022-10-16T09:12:21;27.30;40.20
24730;DHT22;12832;52.392;13.066;2022-10-16T09:15:13;27.30;40.20
24730;DHT22;12832;52.392;13.066;2022-10-16T09:17:53;27.30;40.30
24730;DHT22;12832;52.392;13.066;2022-10-16T09:20:44;27.30;40.20
24730;DHT22;12832;52.392;13.066;2022-10-16T09:25:46;27.30;40.20
24730;DHT22;12832;52.392;13.066;2022-10-16T09:28:14;27.30;40.20
24730;DHT22;12832;52.392;13.066;2022-10-16T09:30:40;27.30;40.20
24730;DHT22;12832;52.392;13.066;2022-10-16T09:33:09;27.30;40.20
24730;DHT22;12832;52.392;13.066;2022-10-16T09:35:46;27.30;40.20
24730;DHT22;12832;52.392;13.066;2022-10-16T09:38:33;27.30;40.30
24730;DHT22;12832;52.392;13.066;2022-10-16T09:41:13;27.30;40.30
24730;DHT22;12832;52.392;13.066;2022-10-16T09:43:42;27.30;40.30
24730;DHT22;12832;52.392;13.066;2022-10-16T09:46:33;27.30;40.30
24730;DHT22;12832;52.392;13.066;2022-10-16T09:49:05;27.30;40.30
24730;DHT22;12832;52.392;13.066;2022-10-16T09:51:34;27.30;40.30
24730;DHT22;12832;52.392;13.066;2022-10-16T09:56:37;27.30;40.30
24730;DHT22;12832;52.392;13.066;2022-10-16T09:59:12;27.30;40.30
24730;DHT22;12832;52.392;13.066;2022-10-16T10:01:41;27.30;40.30
24730;DHT22;12832;52.392;13.066;2022-10-16T10:04:09;27.30;40.30
24730;DHT22;12832;52.392;13.066;2022-10-16T10:06:41;27.30;40.30
24730;DHT22;12832;52.392;13.066;2022-10-16T10:09:24;27.30;40.30
24730;DHT22;12832;52.392;13.066;2022-10-16T10:11:56;27.30;40.30
24730;DHT22;12832;52.392;13.066;2022-10-16T10:14:35;27.30;40.30
24730;DHT22;12832;52.392;13.066;2022-10-16T10:19:40;27.30;40.30
24730;DHT22;12832;52.392;13.066;2022-10-16T10:22:32;27.30;40.30
24730;DHT22;12832;52.392;13.066;2022-10-16T10:25:10;27.30;40.20
24730;DHT22;12832;52.392;13.066;2022-10-16T10:33:19;27.30;40.30
24730;DHT22;12832;52.392;13.066;2022-10-16T10:36:00;27.30;40.30
24730;DHT22;12832;52.392;13.066;2022-10-16T10:39:06;27.30;40.40
24730;DHT22;12832;52.392;13.066;2022-10-16T10:41:59;27.30;40.30
24730;DHT22;12832;52.392;13.066;2022-10-16T10:47:14;27.30;40.40
24730;DHT22;12832;52.392;13.066;2022-10-16T10:49:48;27.30;40.30
24730;DHT22;12832;52.392;13.066;2022-10-16T10:53:16;27.30;40.30
24730;DHT22;12832;52.392;13.066;2022-10-16T10:55:30;27.30;40.30
24730;DHT22;12832;52.392;13.066;2022-10-16T10:58:19;27.30;40.40
24730;DHT22;12832;52.392;13.066;2022-10-16T11:03:42;27.30;40.40
24730;DHT22;12832;52.392;13.066;2022-10-16T11:06:16;27.30;40.50
24730;DHT22;12832;52.392;13.066;2022-10-16T11:08:45;27.20;40.40
24730;DHT22;12832;52.392;13.066;2022-10-16T11:11:24;27.30;40.40
24730;DHT22;12832;52.392;13.066;2022-10-16T11:16:30;27.30;40.40
24730;DHT22;12832;52.392;13.066;2022-10-16T11:22:17;27.30;40.40
24730;DHT22;12832;52.392;13.066;2022-10-16T11:27:33;27.30;40.40
24730;DHT22;12832;52.392;13.066;2022-10-16T11:30:02;27.30;40.40
24730;DHT22;12832;52.392;13.066;2022-10-16T11:32:34;27.30;40.40
24730;DHT22;12832;52.392;13.066;2022-10-16T11:35:11;27.30;40.40
24730;DHT22;12832;52.392;13.066;2022-10-16T11:37:43;27.30;40.40
24730;DHT22;12832;52.392;13.066;2022-10-16T11:40:25;27.30;40.40
24730;DHT22;12832;52.392;13.066;2022-10-16T11:43:15;27.30;40.50
24730;DHT22;12832;52.392;13.066;2022-10-16T11:45:46;27.30;40.40
24730;DHT22;12832;52.392;13.066;2022-10-16T11:50:55;27.30;40.40
24730;DHT22;12832;52.392;13.066;2022-10-16T11:56:07;27.30;40.40
24730;DHT22;12832;52.392;13.066;2022-10-16T11:58:41;27.30;40.40
24730;DHT22;12832;52.392;13.066;2022-10-16T12:03:48;27.30;40.40
24730;DHT22;12832;52.392;13.066;2022-10-16T12:09:26;27.30;40.50
24730;DHT22;12832;52.392;13.066;2022-10-16T12:11:52;27.30;40.50
24730;DHT22;12832;52.392;13.066;2022-10-16T12:14:22;27.30;40.50
24730;DHT22;12832;52.392;13.066;2022-10-16T12:19:59;27.30;40.40
24730;DHT22;12832;52.392;13.066;2022-10-16T12:22:28;27.30;40.40
24730;DHT22;12832;52.392;13.066;2022-10-16T12:24:55;27.30;40.40
24730;DHT22;12832;52.392;13.066;2022-10-16T12:27:30;27.30;40.40
24730;DHT22;12832;52.392;13.066;2022-10-16T12:30:02;27.30;40.40
24730;DHT22;12832;52.392;13.066;2022-10-16T12:32:37;27.30;40.50
24730;DHT22;12832;52.392;13.066;2022-10-16T12:35:21;27.30;40.40
24730;DHT22;12832;52.392;13.066;2022-10-16T12:37:49;27.30;40.40
24730;DHT22;12832;52.392;13.066;2022-10-16T12:40:32;27.30;40.50
24730;DHT22;12832;52.392;13.066;2022-10-16T12:43:56;27.30;40.50
24730;DHT22;12832;52.392;13.066;2022-10-16T12:46:23;27.30;40.40
24730;DHT22;12832;52.392;13.066;2022-10-16T12:48:50;27.30;40.40
24730;DHT22;12832;52.392;13.066;2022-10-16T12:56:46;27.30;40.50
24730;DHT22;12832;52.392;13.066;2022-10-16T13:02:08;27.30;40.60
24730;DHT22;12832;52.392;13.066;2022-10-16T13:10:25;27.30;40.50
24730;DHT22;12832;52.392;13.066;2022-10-16T13:13:09;27.30;40.50
24730;DHT22;12832;52.392;13.066;2022-10-16T13:15:47;27.30;40.50
24730;DHT22;12832;52.392;13.066;2022-10-16T13:18:38;27.30;40.50
24730;DHT22;12832;52.392;13.066;2022-10-16T13:27:54;27.30;40.50
24730;DHT22;12832;52.392;13.066;2022-10-16T13:30:26;27.30;40.50
24730;DHT22;12832;52.392;13.066;2022-10-16T13:33:06;27.30;40.50
24730;DHT22;12832;52.392;13.066;2022-10-16T13:35:35;27.30;40.50
24730;DHT22;12832;52.392;13.066;2022-10-16T13:41:02;27.30;40.50
24730;DHT22;12832;52.392;13.066;2022-10-16T13:43:39;27.30;40.50
24730;DHT22;12832;52.392;13.066;2022-10-16T13:46:15;27.30;40.40
24730;DHT22;12832;52.392;13.066;2022-10-16T13:48:42;27.30;40.50
24730;DHT22;12832;52.392;13.066;2022-10-16T13:51:16;27.30;40.50
24730;DHT22;12832;52.392;13.066;2022-10-16T13:53:43;27.30;40.50
24730;DHT22;12832;52.392;13.066;2022-10-16T13:56:13;27.30;40.50
24730;DHT22;12832;52.392;13.066;2022-10-16T13:58:40;27.30;40.50
24730;DHT22;12832;52.392;13.066;2022-10-16T14:01:17;27.30;40.60
24730;DHT22;12832;52.392;13.066;2022-10-16T14:03:44;27.30;40.50
24730;DHT22;12832;52.392;13.066;2022-10-16T14:06:16;27.30;40.60
24730;DHT22;12832;52.392;13.066;2022-10-16T14:08:47;27.30;40.50
24730;DHT22;12832;52.392;13.066;2022-10-16T14:11:21;27.30;40.50
24730;DHT22;12832;52.392;13.066;2022-10-16T14:13:49;27.30;40.50
24730;DHT22;12832;52.392;13.066;2022-10-16T14:16:34;27.30;40.50
24730;DHT22;12832;52.392;13.066;2022-10-16T14:19:03;27.30;40.50
24730;DHT22;12832;52.392;13.066;2022-10-16T14:21:33;27.30;40.50
24730;DHT22;12832;52.392;13.066;2022-10-16T14:24:11;27.30;40.50
24730;DHT22;12832;52.392;13.066;2022-10-16T14:26:44;27.30;40.50
24730;DHT22;12832;52.392;13.066;2022-10-16T14:29:19;27.30;40.50
24730;DHT22;12832;52.392;13.066;2022-10-16T14:31:56;27.30;40.50
24730;DHT22;12832;52.392;13.066;2022-10-16T14:34:31;27.30;40.50
24730;DHT22;12832;52.392;13.066;2022-10-16T14:37:24;27.30;40.60
24730;DHT22;12832;52.392;13.066;2022-10-16T14:39:54;27.30;40.50
24730;DHT22;12832;52.392;13.066;2022-10-16T14:42:22;27.30;40.50
24730;DHT22;12832;52.392;13.066;2022-10-16T14:44:54;27.30;40.50
24730;DHT22;12832;52.392;13.066;2022-10-16T14:47:25;27.30;40.50
24730;DHT22;12832;52.392;13.066;2022-10-16T14:49:53;27.30;40.50
24730;DHT22;12832;52.392;13.066;2022-10-16T14:52:25;27.30;40.50
24730;DHT22;12832;52.392;13.066;2022-10-16T14:54:51;27.30;40.60
24730;DHT22;12832;52.392;13.066;2022-10-16T14:57:27;27.30;40.60
24730;DHT22;12832;52.392;13.066;2022-10-16T14:59:54;27.30;40.50
24730;DHT22;12832;52.392;13.066;2022-10-16T15:04:48;27.30;40.50
24730;DHT22;12832;52.392;13.066;2022-10-16T15:07:15;27.30;40.60
24730;DHT22;12832;52.392;13.066;2022-10-16T15:09:41;27.30;40.60
24730;DHT22;12832;52.392;13.066;2022-10-16T15:12:15;27.30;40.60
24730;DHT22;12832;52.392;13.066;2022-10-16T15:14:42;27.30;40.60
24730;DHT22;12832;52.392;13.066;2022-10-16T15:17:10;27.30;40.60
24730;DHT22;12832;52.392;13.066;2022-10-16T15:19:36;27.30;40.60
24730;DHT22;12832;52.392;13.066;2022-10-16T15:22:03;27.30;40.60
24730;DHT22;12832;52.392;13.066;2022-10-16T15:24:29;27.30;40.60
24730;DHT22;12832;52.392;13.066;2022-10-16T15:26:55;27.30;40.60
24730;DHT22;12832;52.392;13.066;2022-10-16T15:29:21;27.30;40.60
24730;DHT22;12832;52.392;13.066;2022-10-16T15:31:47;27.30;40.60
24730;DHT22;12832;52.392;13.066;2022-10-16T15:34:14;27.30;40.60
24730;DHT22;12832;52.392;13.066;2022-10-16T15:36:40;27.30;40.60
24730;DHT22;12832;52.392;13.066;2022-10-16T15:39:15;27.30;40.60
24730;DHT22;12832;52.392;13.066;2022-10-16T15:41:42;27.30;40.60
24730;DHT22;12832;52.392;13.066;2022-10-16T15:44:08;27.30;40.60
24730;DHT22;12832;52.392;13.066;2022-10-16T15:46:35;27.30;40.60
24730;DHT22;12832;52.392;13.066;2022-10-16T15:49:03;27.40;40.60
24730;DHT22;12832;52.392;13.066;2022-10-16T15:51:29;27.40;40.60
24730;DHT22;12832;52.392;13.066;2022-10-16T15:53:56;27.30;40.60
24730;DHT22;12832;52.392;13.066;2022-10-16T15:56:23;27.30;40.60
24730;DHT22;12832;52.392;13.066;2022-10-16T15:58:52;27.30;40.60
24730;DHT22;12832;52.392;13.066;2022-10-16T16:01:18;27.30;40.60
24730;DHT22;12832;52.392;13.066;2022-10-16T16:03:45;27.30;40.60
24730;DHT22;12832;52.392;13.066;2022-10-16T16:06:13;27.30;40.60
24730;DHT22;12832;52.392;13.066;2022-10-16T16:08:39;27.30;40.60
24730;DHT22;12832;52.392;13.066;2022-10-16T16:11:12;27.30;40.60
24730;DHT22;12832;52.392;13.066;2022-10-16T16:13:39;27.30;40.60
24730;DHT22;12832;52.392;13.066;2022-10-16T16:16:08;27.30;40.60
24730;DHT22;12832;52.392;13.066;2022-10-16T16:18:35;27.30;40.60
24730;DHT22;12832;52.392;13.066;2022-10-16T16:21:02;27.40;40.60
24730;DHT22;12832;52.392;13.066;2022-10-16T16:23:29;27.40;40.60
24730;DHT22;12832;52.392;13.066;2022-10-16T16:26:34;27.40;40.70
24730;DHT22;12832;52.392;13.066;2022-10-16T16:29:03;27.40;40.60
24730;DHT22;12832;52.392;13.066;2022-10-16T16:31:31;27.40;40.70
24730;DHT22;12832;52.392;13.066;2022-10-16T16:33:58;27.40;40.70
24730;DHT22;12832;52.392;13.066;2022-10-16T16:36:25;27.30;40.60
24730;DHT22;12832;52.392;13.066;2022-10-16T16:38:51;27.30;40.60
24730;DHT22;12832;52.392;13.066;2022-10-16T16:41:20;27.30;40.60
24730;DHT22;12832;52.392;13.066;2022-10-16T16:43:47;27.40;40.80
24730;DHT22;12832;52.392;13.066;2022-10-16T16:46:14;27.40;40.70
24730;DHT22;12832;52.392;13.066;2022-10-16T16:48:41;27.40;40.70
24730;DHT22;12832;52.392;13.066;2022-10-16T16:51:15;27.40;40.70
24730;DHT22;12832;52.392;13.066;2022-10-16T16:53:43;27.40;40.70
24730;DHT22;12832;52.392;13.066;2022-10-16T16:56:10;27.40;40.70
24730;DHT22;12832;52.392;13.066;2022-10-16T16:58:37;27.30;40.70
24730;DHT22;12832;52.392;13.066;2022-10-16T17:01:03;27.30;40.60
24730;DHT22;12832;52.392;13.066;2022-10-16T17:03:50;27.40;40.70
24730;DHT22;12832;52.392;13.066;2022-10-16T17:06:18;27.40;40.90